Time;durP1;ratioP1;P1;durP2;ratioP2;P2;SDS_P1;SDS_P2;PMS_P1;PMS_P2;Temp;Humidity;BMP_temperature;BMP_pressure;BME280_temperature;BME280_humidity;BME280_pressure;Samples;Min_cycle;Max_cycle;Signal;HPM_P1;HPM_P2
2021/08/20 00:01:37;;;;;;;1.48;1.38;;;17.30;99.90;;;;;;5025047;28;20390;-70
2021/08/20 00:04:03;;;;;;;1.58;1.40;;;17.30;99.90;;;;;;5028135;28;20074;-70
2021/08/20 00:06:29;;;;;;;1.67;1.58;;;17.30;99.90;;;;;;5027426;28;20036;-70
2021/08/20 00:08:55;;;;;;;3.05;1.80;;;17.30;99.90;;;;;;5021779;28;20034;-70
2021/08/20 00:11:20;;;;;;;1.63;1.52;;;17.30;99.90;;;;;;5021393;28;20495;-70
2021/08/20 00:13:46;;;;;;;3.08;1.95;;;17.40;99.90;;;;;;5021809;28;20121;-70
2021/08/20 00:16:12;;;;;;;2.00;1.73;;;17.40;99.90;;;;;;5022019;28;20022;-70
2021/08/20 00:18:37;;;;;;;2.53;1.42;;;17.40;99.90;;;;;;5020881;28;20078;-71
2021/08/20 00:21:03;;;;;;;2.15;1.65;;;17.40;99.90;;;;;;5021450;28;20108;-71
2021/08/20 00:23:29;;;;;;;2.55;2.13;;;17.40;99.90;;;;;;5020168;28;20075;-72
2021/08/20 00:25:54;;;;;;;3.42;1.90;;;17.40;99.90;;;;;;5021974;28;20026;-70
2021/08/20 00:28:20;;;;;;;2.30;1.45;;;17.40;99.90;;;;;;5020539;28;20029;-70
2021/08/20 00:30:49;;;;;;;2.72;1.70;;;17.30;99.90;;;;;;5021401;28;20017;-70
2021/08/20 00:33:14;;;;;;;2.30;1.50;;;17.40;99.90;;;;;;5022128;28;20053;-70
2021/08/20 00:35:40;;;;;;;1.55;1.30;;;17.30;99.90;;;;;;5022344;28;20061;-70
2021/08/20 00:38:05;;;;;;;2.58;1.55;;;17.40;99.90;;;;;;5020718;28;20022;-71
2021/08/20 00:40:32;;;;;;;2.35;1.40;;;17.30;99.90;;;;;;5021421;28;20041;-70
2021/08/20 00:42:58;;;;;;;1.33;1.23;;;17.30;99.90;;;;;;5022162;28;20539;-70
2021/08/20 00:45:23;;;;;;;1.60;1.50;;;17.30;99.90;;;;;;5019706;28;20140;-70
2021/08/20 00:47:49;;;;;;;2.80;1.17;;;17.30;99.90;;;;;;5023260;28;20041;-70
2021/08/20 00:50:15;;;;;;;1.92;1.27;;;17.30;99.90;;;;;;5021221;28;20057;-69
2021/08/20 00:52:41;;;;;;;1.77;1.50;;;17.30;99.90;;;;;;5021032;28;20163;-70
2021/08/20 00:55:09;;;;;;;1.30;1.20;;;17.30;99.90;;;;;;5020215;28;20033;-70
2021/08/20 00:57:35;;;;;;;1.70;1.50;;;17.30;99.90;;;;;;5019949;28;20037;-70
2021/08/20 01:00:00;;;;;;;1.83;1.30;;;17.30;99.90;;;;;;5020126;28;20022;-70
2021/08/20 01:02:26;;;;;;;1.95;1.20;;;17.20;99.90;;;;;;5019405;28;20483;-70
2021/08/20 01:04:52;;;;;;;2.78;1.30;;;17.20;99.90;;;;;;5022157;28;20391;-70
2021/08/20 01:07:18;;;;;;;2.30;1.50;;;17.20;99.90;;;;;;5021482;28;20034;-69
2021/08/20 01:09:47;;;;;;;1.48;1.38;;;17.20;99.90;;;;;;5020659;28;20604;-69
2021/08/20 01:12:13;;;;;;;4.00;1.50;;;17.20;99.90;;;;;;5021414;28;20045;-70
2021/08/20 01:14:38;;;;;;;4.47;1.80;;;17.20;99.90;;;;;;5020176;28;20015;-70
2021/08/20 01:17:06;;;;;;;1.50;1.40;;;17.20;99.90;;;;;;5020289;28;20021;-70
2021/08/20 01:19:33;;;;;;;1.90;1.52;;;17.20;99.90;;;;;;5021165;28;20049;-69
2021/08/20 01:21:59;;;;;;;1.73;1.48;;;17.20;99.90;;;;;;5021495;28;20026;-68
2021/08/20 01:24:26;;;;;;;1.83;1.50;;;17.20;99.90;;;;;;5018905;28;20590;-69
2021/08/20 01:26:52;;;;;;;2.42;1.73;;;17.10;99.90;;;;;;5019865;28;20029;-70
2021/08/20 01:29:19;;;;;;;3.17;1.55;;;17.20;99.90;;;;;;5019311;28;20029;-70
2021/08/20 01:31:45;;;;;;;2.95;1.85;;;17.20;99.90;;;;;;5020684;28;20088;-71
2021/08/20 01:34:12;;;;;;;3.08;1.45;;;17.20;99.90;;;;;;5019926;28;20034;-71
2021/08/20 01:36:38;;;;;;;2.25;1.40;;;17.20;99.90;;;;;;5035035;28;20417;-71
2021/08/20 01:39:04;;;;;;;2.72;1.50;;;17.20;99.90;;;;;;5022028;28;20091;-72
2021/08/20 01:41:30;;;;;;;2.50;1.38;;;17.20;99.90;;;;;;5018365;28;20045;-71
2021/08/20 01:43:58;;;;;;;2.90;1.40;;;17.20;99.90;;;;;;5020659;28;20034;-71
2021/08/20 01:46:25;;;;;;;1.95;1.63;;;17.20;99.90;;;;;;5018786;28;20168;-71
2021/08/20 01:48:54;;;;;;;2.10;1.35;;;17.20;99.90;;;;;;5019856;28;20109;-71
2021/08/20 01:51:23;;;;;;;3.30;1.40;;;17.20;99.90;;;;;;5019938;28;20022;-71
2021/08/20 01:53:51;;;;;;;1.50;1.30;;;17.20;99.90;;;;;;5020558;28;20056;-71
2021/08/20 01:56:24;;;;;;;1.83;1.60;;;17.20;99.90;;;;;;5019264;28;20034;-71
2021/08/20 01:58:51;;;;;;;2.35;1.33;;;17.20;99.90;;;;;;5021734;28;20527;-71
2021/08/20 02:01:17;;;;;;;1.88;1.30;;;17.10;99.90;;;;;;5020727;28;20060;-71
2021/08/20 02:03:43;;;;;;;2.20;1.63;;;17.10;99.90;;;;;;5019267;28;20061;-71
2021/08/20 02:06:09;;;;;;;2.20;1.23;;;17.20;99.90;;;;;;5021046;28;20072;-71
2021/08/20 02:08:35;;;;;;;2.35;1.58;;;17.10;99.90;;;;;;5017813;28;20025;-71
2021/08/20 02:11:01;;;;;;;1.65;1.30;;;17.10;99.90;;;;;;5018837;28;20029;-70
2021/08/20 02:13:26;;;;;;;3.05;1.80;;;17.10;99.90;;;;;;5020632;28;20510;-70
2021/08/20 02:15:52;;;;;;;1.55;1.42;;;17.10;99.90;;;;;;5017785;28;20041;-70
2021/08/20 02:18:18;;;;;;;2.25;1.60;;;17.10;99.90;;;;;;5020473;28;20076;-70
2021/08/20 02:20:44;;;;;;;2.55;1.73;;;17.10;99.90;;;;;;5018449;28;20025;-70
2021/08/20 02:23:11;;;;;;;4.30;1.50;;;17.10;99.90;;;;;;5020827;28;20041;-71
2021/08/20 02:25:37;;;;;;;2.10;1.67;;;17.10;99.90;;;;;;5018730;28;20140;-70
2021/08/20 02:28:03;;;;;;;1.85;1.50;;;17.10;99.90;;;;;;5018933;28;20026;-70
2021/08/20 02:30:29;;;;;;;1.63;1.50;;;17.10;99.90;;;;;;5019373;28;20301;-71
2021/08/20 02:32:55;;;;;;;2.72;1.77;;;17.00;99.90;;;;;;5019788;28;20030;-71
2021/08/20 02:35:21;;;;;;;2.03;1.58;;;17.10;99.90;;;;;;5019292;28;20604;-71
2021/08/20 02:37:47;;;;;;;2.83;1.67;;;17.10;99.90;;;;;;5019410;28;20044;-71
2021/08/20 02:40:13;;;;;;;4.18;2.03;;;17.10;99.90;;;;;;5019007;28;20046;-70
2021/08/20 02:42:38;;;;;;;4.38;1.75;;;17.00;99.90;;;;;;5018505;28;20120;-71
2021/08/20 02:45:05;;;;;;;2.13;1.60;;;17.00;99.90;;;;;;5024610;28;20044;-71
2021/08/20 02:47:30;;;;;;;2.28;1.73;;;17.00;99.90;;;;;;5021432;28;20136;-70
2021/08/20 02:49:56;;;;;;;2.70;1.77;;;17.00;99.90;;;;;;5023610;28;20096;-70
2021/08/20 02:52:22;;;;;;;2.85;1.85;;;17.00;99.90;;;;;;5024570;28;20021;-71
2021/08/20 02:54:48;;;;;;;2.50;1.80;;;17.00;99.90;;;;;;5022482;28;20084;-70
2021/08/20 02:57:13;;;;;;;3.90;1.50;;;17.00;99.90;;;;;;5025109;28;20022;-71
2021/08/20 02:59:39;;;;;;;1.73;1.60;;;17.00;99.90;;;;;;5024725;28;20025;-71
2021/08/20 03:02:05;;;;;;;1.58;1.48;;;17.00;99.90;;;;;;5021926;28;20833;-71
2021/08/20 03:04:30;;;;;;;3.53;2.38;;;17.00;99.90;;;;;;5024360;28;20041;-71
2021/08/20 03:06:56;;;;;;;2.35;1.98;;;17.00;99.90;;;;;;5023801;28;20053;-71
2021/08/20 03:09:22;;;;;;;1.88;1.58;;;16.90;99.90;;;;;;5022905;28;20034;-71
2021/08/20 03:11:48;;;;;;;3.78;2.88;;;17.00;99.90;;;;;;5021930;28;20037;-72
2021/08/20 03:14:15;;;;;;;4.85;3.15;;;17.00;99.90;;;;;;5025400;28;20450;-71
2021/08/20 03:16:41;;;;;;;2.85;2.33;;;16.90;99.90;;;;;;5033910;28;20033;-71
2021/08/20 03:19:08;;;;;;;3.15;2.13;;;16.90;99.90;;;;;;5035069;28;20025;-71
2021/08/20 03:21:34;;;;;;;3.15;1.70;;;17.00;99.90;;;;;;5034181;28;20030;-70
2021/08/20 03:23:59;;;;;;;3.33;1.58;;;17.00;99.90;;;;;;5034957;28;20477;-70
2021/08/20 03:26:25;;;;;;;1.67;1.50;;;16.90;99.90;;;;;;5034413;28;20025;-70
2021/08/20 03:28:51;;;;;;;1.77;1.40;;;17.00;99.90;;;;;;5034530;28;20021;-70
2021/08/20 03:31:18;;;;;;;2.30;1.50;;;17.00;99.90;;;;;;5034689;28;20025;-70
2021/08/20 03:33:43;;;;;;;2.13;1.67;;;16.90;99.90;;;;;;5033987;28;20831;-70
2021/08/20 03:36:09;;;;;;;1.48;1.35;;;16.90;99.90;;;;;;5034782;28;20065;-70
2021/08/20 03:38:35;;;;;;;2.60;1.65;;;17.00;99.90;;;;;;5033697;28;20379;-70
2021/08/20 03:41:00;;;;;;;2.22;1.48;;;17.00;99.90;;;;;;5034255;28;20102;-70
2021/08/20 03:43:26;;;;;;;2.97;1.38;;;17.00;99.90;;;;;;5034069;28;20034;-70
2021/08/20 03:45:51;;;;;;;2.65;1.40;;;16.90;99.90;;;;;;5034721;28;20103;-70
2021/08/20 03:48:17;;;;;;;1.98;1.42;;;16.90;99.90;;;;;;5034424;28;20030;-70
2021/08/20 03:50:43;;;;;;;1.80;1.58;;;17.00;99.90;;;;;;5033513;28;20471;-70
2021/08/20 03:53:08;;;;;;;1.73;1.50;;;16.90;99.90;;;;;;5034418;28;20041;-70
2021/08/20 03:55:34;;;;;;;1.33;1.23;;;16.90;99.90;;;;;;5033121;28;20040;-69
2021/08/20 03:58:00;;;;;;;1.65;1.55;;;16.90;99.90;;;;;;5034053;28;20022;-69
2021/08/20 04:00:25;;;;;;;2.65;1.67;;;16.90;99.90;;;;;;5033935;28;20029;-69
2021/08/20 04:02:51;;;;;;;2.38;2.08;;;16.90;99.90;;;;;;5032996;28;20038;-69
2021/08/20 04:05:17;;;;;;;2.35;1.73;;;16.90;99.90;;;;;;5033611;28;20525;-69
2021/08/20 04:07:42;;;;;;;3.13;1.60;;;16.90;99.90;;;;;;5033282;28;20391;-69
2021/08/20 04:10:08;;;;;;;2.28;1.70;;;16.90;99.90;;;;;;5022948;28;20041;-69
2021/08/20 04:12:34;;;;;;;2.75;1.70;;;16.90;99.90;;;;;;5013504;28;20038;-69
2021/08/20 04:14:59;;;;;;;2.88;2.03;;;16.90;99.90;;;;;;5014400;28;20040;-69
2021/08/20 04:17:25;;;;;;;2.08;1.58;;;16.90;99.90;;;;;;5013776;28;20029;-70
2021/08/20 04:19:51;;;;;;;1.98;1.67;;;16.90;99.90;;;;;;5013350;28;20426;-69
2021/08/20 04:22:16;;;;;;;2.05;1.60;;;16.90;99.90;;;;;;5013952;28;20055;-69
2021/08/20 04:24:42;;;;;;;1.63;1.50;;;16.90;99.90;;;;;;5013363;28;20030;-69
2021/08/20 04:27:09;;;;;;;2.22;1.60;;;16.90;99.90;;;;;;5013593;28;20026;-69
2021/08/20 04:29:35;;;;;;;2.28;1.70;;;16.90;99.90;;;;;;5013010;28;20032;-69
2021/08/20 04:32:01;;;;;;;2.13;1.60;;;16.90;99.90;;;;;;5013940;28;20018;-69
2021/08/20 04:34:27;;;;;;;1.83;1.60;;;16.90;99.90;;;;;;5013066;28;20383;-71
2021/08/20 04:36:52;;;;;;;2.05;1.60;;;17.00;99.90;;;;;;5013291;28;20041;-69
2021/08/20 04:39:18;;;;;;;2.08;1.88;;;17.00;99.90;;;;;;5013167;28;20531;-69
2021/08/20 04:41:44;;;;;;;1.75;1.65;;;17.00;99.90;;;;;;5013117;28;20030;-69
2021/08/20 04:44:09;;;;;;;2.08;1.65;;;17.00;99.90;;;;;;5013584;28;20044;-68
2021/08/20 04:46:35;;;;;;;1.92;1.63;;;17.00;99.90;;;;;;5012879;28;20038;-69
2021/08/20 04:49:01;;;;;;;2.35;2.03;;;17.00;99.90;;;;;;5013246;28;20406;-69
2021/08/20 04:51:26;;;;;;;2.25;1.75;;;17.00;99.90;;;;;;5013447;28;20037;-69
2021/08/20 04:53:52;;;;;;;1.95;1.50;;;17.00;99.90;;;;;;5012894;28;20497;-69
2021/08/20 04:56:18;;;;;;;2.33;2.03;;;17.00;99.90;;;;;;5013546;28;20032;-69
2021/08/20 04:58:43;;;;;;;1.88;1.40;;;17.00;99.90;;;;;;5012796;28;20447;-69
2021/08/20 05:01:11;;;;;;;2.83;1.90;;;17.00;99.90;;;;;;5012701;28;20454;-69
2021/08/20 05:03:37;;;;;;;4.10;2.22;;;17.10;99.90;;;;;;5012117;28;20069;-69
2021/08/20 05:06:04;;;;;;;2.63;1.75;;;17.10;99.90;;;;;;5012550;28;20033;-69
2021/08/20 05:08:30;;;;;;;2.70;2.15;;;17.10;99.90;;;;;;5012639;28;20478;-69
2021/08/20 05:10:56;;;;;;;2.08;1.90;;;17.10;99.90;;;;;;5030731;28;20041;-69
2021/08/20 05:13:21;;;;;;;2.28;2.00;;;17.10;99.90;;;;;;5032203;28;20037;-69
2021/08/20 05:15:47;;;;;;;2.35;1.83;;;17.10;99.90;;;;;;5031883;28;20037;-69
2021/08/20 05:18:13;;;;;;;3.50;2.30;;;17.10;99.90;;;;;;5032483;28;20044;-69
2021/08/20 05:20:38;;;;;;;2.58;1.88;;;17.10;99.90;;;;;;5031313;28;20116;-69
2021/08/20 05:23:04;;;;;;;5.45;2.20;;;17.10;99.90;;;;;;5032369;28;20120;-69
2021/08/20 05:25:35;;;;;;;2.10;1.92;;;17.20;99.90;;;;;;5032078;28;20025;-68
2021/08/20 05:28:02;;;;;;;2.90;2.25;;;17.30;99.90;;;;;;5032576;28;20164;-69
2021/08/20 05:30:28;;;;;;;1.95;1.83;;;17.30;99.90;;;;;;5032222;28;20116;-69
2021/08/20 05:32:54;;;;;;;1.92;1.77;;;17.30;99.90;;;;;;5032042;28;20120;-68
2021/08/20 05:35:20;;;;;;;2.83;2.22;;;17.40;99.90;;;;;;5032287;28;20036;-69
2021/08/20 05:37:45;;;;;;;2.40;1.75;;;17.40;99.90;;;;;;5031352;28;20030;-69
2021/08/20 05:40:12;;;;;;;2.03;1.80;;;17.50;99.90;;;;;;5032296;28;20046;-69
2021/08/20 05:42:38;;;;;;;4.03;2.38;;;17.50;99.90;;;;;;5031017;28;20053;-69
2021/08/20 05:45:05;;;;;;;3.25;2.30;;;17.60;99.90;;;;;;5032350;28;20021;-69
2021/08/20 05:47:31;;;;;;;2.90;1.85;;;17.60;99.90;;;;;;5031482;28;20047;-69
2021/08/20 05:49:57;;;;;;;2.05;1.85;;;17.70;99.90;;;;;;5031900;28;20479;-69
2021/08/20 05:52:23;;;;;;;2.60;2.17;;;17.80;99.90;;;;;;5032404;28;20101;-68
2021/08/20 05:54:49;;;;;;;7.95;1.98;;;17.80;99.90;;;;;;5031561;28;20100;-70
2021/08/20 05:57:14;;;;;;;2.85;2.00;;;17.90;99.90;;;;;;5032311;28;20463;-69
2021/08/20 05:59:40;;;;;;;2.10;1.73;;;18.00;99.90;;;;;;5031061;28;20450;-70
2021/08/20 06:02:06;;;;;;;2.20;1.80;;;18.00;99.90;;;;;;5032448;28;20026;-69
2021/08/20 06:04:31;;;;;;;1.58;1.40;;;18.10;99.90;;;;;;5031196;28;20391;-69
2021/08/20 06:06:57;;;;;;;2.05;1.80;;;18.20;99.90;;;;;;5031610;28;20026;-69
2021/08/20 06:09:23;;;;;;;2.05;1.92;;;18.30;99.90;;;;;;5026774;28;20057;-69
2021/08/20 06:11:48;;;;;;;2.00;1.90;;;18.40;99.90;;;;;;5011817;28;20046;-70
2021/08/20 06:14:14;;;;;;;3.15;1.90;;;18.50;99.90;;;;;;5012082;28;20030;-71
2021/08/20 06:16:40;;;;;;;2.45;2.20;;;18.60;99.90;;;;;;5011349;28;20032;-70
2021/08/20 06:19:05;;;;;;;2.20;2.03;;;18.70;99.90;;;;;;5011555;28;20165;-70
2021/08/20 06:21:31;;;;;;;3.50;2.20;;;18.70;99.90;;;;;;5011516;28;20022;-69
2021/08/20 06:23:57;;;;;;;2.92;2.38;;;18.90;99.90;;;;;;5011580;28;20459;-70
2021/08/20 06:26:22;;;;;;;2.45;2.00;;;19.00;99.90;;;;;;5011372;28;20030;-71
2021/08/20 06:28:48;;;;;;;3.58;2.33;;;19.00;99.90;;;;;;5011314;28;20048;-69
2021/08/20 06:31:14;;;;;;;2.50;2.30;;;19.10;99.90;;;;;;5012336;28;20034;-70
2021/08/20 06:33:39;;;;;;;3.28;2.33;;;19.20;99.90;;;;;;5011103;28;20489;-70
2021/08/20 06:36:05;;;;;;;2.75;2.17;;;19.20;99.90;;;;;;5011544;28;20084;-70
2021/08/20 06:38:32;;;;;;;3.38;2.47;;;19.40;99.90;;;;;;5011444;28;20052;-74
2021/08/20 06:40:58;;;;;;;3.88;2.40;;;19.40;99.90;;;;;;5016935;28;20053;-69
2021/08/20 06:43:23;;;;;;;6.82;2.75;;;19.50;99.90;;;;;;5021162;28;20034;-69
2021/08/20 06:45:49;;;;;;;3.63;2.40;;;19.60;99.90;;;;;;5028116;28;20071;-69
2021/08/20 06:48:16;;;;;;;5.57;2.42;;;19.70;99.90;;;;;;5024206;28;20875;-71
2021/08/20 06:50:42;;;;;;;4.32;3.00;;;19.60;99.90;;;;;;5021295;28;20065;-69
2021/08/20 06:53:09;;;;;;;3.55;3.25;;;19.70;99.90;;;;;;5024912;28;20475;-70
2021/08/20 06:55:35;;;;;;;4.15;2.97;;;19.80;99.90;;;;;;5030747;28;20033;-70
2021/08/20 06:58:00;;;;;;;5.18;3.30;;;19.80;99.90;;;;;;5031387;28;20026;-70
2021/08/20 07:00:26;;;;;;;3.90;3.45;;;19.80;99.90;;;;;;5031431;28;20029;-74
2021/08/20 07:02:52;;;;;;;8.55;4.55;;;19.80;99.90;;;;;;5030501;28;20057;-70
2021/08/20 07:05:18;;;;;;;7.63;3.83;;;19.90;99.90;;;;;;5031274;28;20395;-71
2021/08/20 07:07:44;;;;;;;7.68;4.40;;;20.00;99.90;;;;;;5030567;28;20026;-70
2021/08/20 07:10:11;;;;;;;10.70;4.47;;;20.10;99.90;;;;;;5019744;28;20044;-70
2021/08/20 07:12:38;;;;;;;6.20;4.60;;;20.10;99.90;;;;;;5013073;28;20041;-70
2021/08/20 07:15:05;;;;;;;8.85;5.18;;;20.20;99.90;;;;;;5020202;28;20030;-70
2021/08/20 07:17:31;;;;;;;8.68;4.72;;;20.20;99.90;;;;;;5013266;28;20034;-69
2021/08/20 07:19:58;;;;;;;11.77;5.03;;;20.30;99.90;;;;;;5011272;28;20037;-69
2021/08/20 07:22:25;;;;;;;8.13;5.20;;;20.30;99.90;;;;;;5011313;28;20040;-69
2021/08/20 07:24:51;;;;;;;6.78;5.35;;;20.40;99.90;;;;;;5009462;28;20033;-72
2021/08/20 07:27:17;;;;;;;8.95;5.97;;;20.60;99.90;;;;;;5011476;28;20108;-70
2021/08/20 07:29:42;;;;;;;6.45;5.25;;;20.70;99.90;;;;;;5012498;28;20026;-70
2021/08/20 07:32:08;;;;;;;8.48;5.10;;;20.80;99.90;;;;;;5015105;28;20035;-71
2021/08/20 07:34:34;;;;;;;9.55;6.38;;;20.80;99.90;;;;;;5014693;28;20044;-71
2021/08/20 07:36:59;;;;;;;10.30;5.72;;;20.90;99.90;;;;;;5014233;28;20034;-71
2021/08/20 07:39:26;;;;;;;9.10;4.85;;;20.90;99.90;;;;;;5022909;28;20455;-69
2021/08/20 07:41:57;;;;;;;7.68;5.70;;;20.80;99.90;;;;;;5022606;28;20030;-70
2021/08/20 07:44:22;;;;;;;;;;;20.80;99.90;;;;;;5025937;28;20034;-69
2021/08/20 07:46:48;;;;;;;10.18;5.18;;;20.80;99.90;;;;;;5024123;28;19910;-69
2021/08/20 07:49:14;;;;;;;13.63;6.28;;;20.80;99.90;;;;;;5023205;28;20022;-69
2021/08/20 07:51:39;;;;;;;11.95;7.43;;;21.00;99.90;;;;;;5023856;28;20022;-72
2021/08/20 07:54:05;;;;;;;8.38;5.47;;;21.20;99.90;;;;;;5023453;28;20026;-69
2021/08/20 07:56:31;;;;;;;7.90;5.05;;;21.40;99.90;;;;;;5023216;28;20427;-69
2021/08/20 07:58:57;;;;;;;8.23;4.45;;;21.50;99.70;;;;;;5022352;28;20017;-69
2021/08/20 08:01:23;;;;;;;7.55;4.63;;;21.50;99.90;;;;;;5024825;28;20079;-69
2021/08/20 08:03:49;;;;;;;5.72;4.15;;;21.50;99.90;;;;;;5022899;28;20030;-69
2021/08/20 08:06:16;;;;;;;7.13;5.10;;;21.50;99.60;;;;;;5020640;28;20034;-68
2021/08/20 08:08:43;;;;;;;7.63;5.53;;;21.50;98.80;;;;;;5021916;28;20026;-69
2021/08/20 08:11:10;;;;;;;6.22;4.88;;;21.30;98.80;;;;;;5023660;28;20442;-69
2021/08/20 08:13:36;;;;;;;8.38;5.70;;;21.30;99.20;;;;;;5022147;28;20037;-70
2021/08/20 08:16:02;;;;;;;5.93;4.35;;;21.30;98.70;;;;;;5024773;28;20034;-69
2021/08/20 08:18:28;;;;;;;7.60;4.72;;;21.40;98.90;;;;;;5033900;28;20029;-67
2021/08/20 08:20:54;;;;;;;9.90;5.40;;;21.50;99.00;;;;;;5027202;28;20022;-68
2021/08/20 08:23:21;;;;;;;8.65;6.10;;;21.70;98.20;;;;;;5031173;28;20500;-68
2021/08/20 08:25:47;;;;;;;6.15;4.38;;;22.00;97.70;;;;;;5033756;28;20075;-69
2021/08/20 08:28:19;;;;;;;7.68;5.10;;;22.20;97.50;;;;;;5033523;28;20029;-69
2021/08/20 08:30:47;;;;;;;5.85;4.72;;;22.40;96.90;;;;;;5032765;28;20132;-68
2021/08/20 08:33:13;;;;;;;6.75;4.03;;;22.70;95.60;;;;;;5030829;28;20029;-68
2021/08/20 08:35:39;;;;;;;4.30;3.90;;;22.70;94.80;;;;;;5033326;28;20474;-68
2021/08/20 08:38:21;;;;;;;4.32;3.40;;;22.50;94.80;;;;;;5030995;28;20040;-72
2021/08/20 08:40:50;;;;;;;6.20;3.70;;;22.30;95.40;;;;;;5032547;28;20495;-68
2021/08/20 08:43:18;;;;;;;4.87;3.97;;;22.10;94.80;;;;;;5033262;28;20034;-69
2021/08/20 08:45:44;;;;;;;7.25;3.70;;;22.00;95.00;;;;;;5032201;28;20060;-68
2021/08/20 08:48:13;;;;;;;5.03;3.90;;;21.90;95.60;;;;;;5034301;28;20033;-68
2021/08/20 08:50:44;;;;;;;11.48;6.03;;;21.80;95.50;;;;;;5032637;28;20034;-67
2021/08/20 08:53:10;;;;;;;5.75;4.38;;;21.80;95.50;;;;;;5032558;28;20034;-68
2021/08/20 08:55:36;;;;;;;6.97;4.50;;;21.90;95.70;;;;;;5032874;28;20021;-67
2021/08/20 08:58:06;;;;;;;4.13;3.72;;;22.00;95.50;;;;;;5032220;28;20478;-68
2021/08/20 09:00:32;;;;;;;;;;;22.40;94.80;;;;;;5033649;28;20463;-68
2021/08/20 09:02:57;;;;;;;11.65;5.45;;;22.90;93.50;;;;;;5032021;28;19920;-68
2021/08/20 09:05:23;;;;;;;5.10;4.20;;;23.20;92.80;;;;;;5032825;28;20029;-68
2021/08/20 09:07:54;;;;;;;5.72;4.00;;;23.20;92.30;;;;;;5031686;28;20551;-68
2021/08/20 09:10:25;;;;;;;5.65;5.15;;;23.10;92.30;;;;;;5019706;28;20379;-68
2021/08/20 09:12:57;;;;;;;7.13;5.45;;;23.00;92.50;;;;;;5012270;28;20033;-68
2021/08/20 09:15:28;;;;;;;5.80;4.38;;;22.80;93.20;;;;;;5012966;28;20101;-69
2021/08/20 09:17:59;;;;;;;7.82;4.97;;;22.50;94.00;;;;;;5017161;28;20045;-68
2021/08/20 09:20:36;;;;;;;7.95;5.15;;;22.30;94.30;;;;;;5022933;28;20060;-68
2021/08/20 09:23:15;;;;;;;9.38;5.55;;;22.10;94.70;;;;;;5022040;28;20060;-68
2021/08/20 09:25:44;;;;;;;10.77;6.60;;;21.90;95.30;;;;;;5021858;28;20478;-69
2021/08/20 09:28:27;;;;;;;9.85;5.82;;;21.80;95.30;;;;;;5021515;28;20554;-69
2021/08/20 09:30:56;;;;;;;7.35;5.60;;;21.80;95.40;;;;;;5012771;28;20034;-69
2021/08/20 09:33:30;;;;;;;6.10;5.07;;;21.80;95.60;;;;;;5018241;28;20109;-69
2021/08/20 09:36:09;;;;;;;11.13;6.32;;;21.90;95.50;;;;;;5023237;28;20394;-69
2021/08/20 09:38:39;;;;;;;6.85;5.30;;;22.00;95.30;;;;;;5024095;28;20034;-69
2021/08/20 09:41:19;;;;;;;5.57;5.03;;;21.90;95.30;;;;;;5022472;28;20042;-69
2021/08/20 09:43:49;;;;;;;6.78;5.43;;;21.90;94.90;;;;;;5017468;28;20045;-68
2021/08/20 09:46:15;;;;;;;;;;;22.00;94.60;;;;;;5012995;28;20079;-68
2021/08/20 09:48:59;;;;;;;5.20;4.20;;;22.10;93.80;;;;;;5016188;28;19910;-69
2021/08/20 09:51:30;;;;;;;6.18;5.03;;;22.30;93.90;;;;;;5022325;28;20038;-68
2021/08/20 09:54:02;;;;;;;5.53;4.70;;;22.70;92.30;;;;;;5020355;28;20029;-68
2021/08/20 09:56:28;;;;;;;6.00;4.20;;;23.00;90.90;;;;;;5022952;28;20025;-68
2021/08/20 09:59:00;;;;;;;6.50;4.45;;;23.10;90.90;;;;;;5020016;28;20029;-68
2021/08/20 10:01:28;;;;;;;6.43;4.53;;;23.20;90.00;;;;;;5023713;28;20101;-68
2021/08/20 10:03:59;;;;;;;5.25;4.20;;;23.40;88.70;;;;;;5023936;28;20111;-68
2021/08/20 10:06:36;;;;;;;8.90;4.43;;;23.60;89.00;;;;;;5023453;28;20021;-69
2021/08/20 10:09:16;;;;;;;4.35;3.95;;;23.90;85.80;;;;;;5021659;28;20105;-69
2021/08/20 10:11:47;;;;;;;7.03;4.13;;;24.10;85.20;;;;;;5021826;28;20505;-68
2021/08/20 10:14:13;;;;;;;5.25;3.70;;;24.10;84.90;;;;;;5021521;28;20022;-68
2021/08/20 10:16:40;;;;;;;4.75;3.55;;;24.40;84.50;;;;;;5020635;28;20463;-69
2021/08/20 10:19:08;;;;;;;6.03;3.72;;;24.60;82.80;;;;;;5020682;28;20093;-68
2021/08/20 10:21:36;;;;;;;6.35;4.28;;;24.90;82.10;;;;;;5023178;28;20383;-69
2021/08/20 10:24:03;;;;;;;6.80;3.88;;;25.10;81.60;;;;;;5020104;28;20040;-68
2021/08/20 10:26:29;;;;;;;6.90;4.07;;;24.90;81.60;;;;;;5024340;28;20034;-68
2021/08/20 10:28:56;;;;;;;7.90;4.22;;;24.60;81.30;;;;;;5025402;28;20029;-67
2021/08/20 10:31:23;;;;;;;5.32;3.30;;;24.20;83.20;;;;;;5021644;28;20443;-68
2021/08/20 10:33:49;;;;;;;5.03;3.45;;;23.90;85.00;;;;;;5022051;28;20030;-69
2021/08/20 10:36:15;;;;;;;7.13;4.38;;;23.70;86.40;;;;;;5021925;28;20029;-68
2021/08/20 10:38:43;;;;;;;4.32;3.75;;;23.60;85.90;;;;;;5021349;28;20026;-68
2021/08/20 10:41:19;;;;;;;6.60;3.58;;;23.50;84.40;;;;;;5021747;28;20125;-69
2021/08/20 10:44:00;;;;;;;6.72;3.85;;;23.30;83.90;;;;;;5021627;28;20064;-72
2021/08/20 10:46:31;;;;;;;5.47;3.40;;;23.20;83.40;;;;;;5024243;28;20029;-70
2021/08/20 10:51:53;;;;;;;5.32;3.45;;;23.30;82.50;;;;;;5022485;28;20079;-68
2021/08/20 10:54:31;;;;;;;6.25;4.20;;;23.60;81.50;;;;;;5019425;28;20038;-68
2021/08/20 10:57:01;;;;;;;4.80;4.05;;;23.90;81.30;;;;;;5022233;28;20025;-68
2021/08/20 10:59:39;;;;;;;6.40;2.92;;;24.00;80.40;;;;;;5020845;28;20057;-70
2021/08/20 11:02:20;;;;;;;5.32;3.15;;;24.10;79.90;;;;;;5019861;28;20415;-70
2021/08/20 11:05:19;;;;;;;4.93;3.60;;;24.30;78.70;;;;;;5020864;28;20534;-71
2021/08/20 11:07:45;;;;;;;4.82;3.10;;;24.60;77.10;;;;;;5009840;28;20041;-73
2021/08/20 11:10:11;;;;;;;3.42;3.13;;;24.80;76.00;;;;;;5023417;28;20026;-71
2021/08/20 11:12:49;;;;;;;5.03;2.65;;;25.10;76.30;;;;;;5015373;28;20068;-67
2021/08/20 11:15:17;;;;;;;4.07;3.03;;;25.30;74.60;;;;;;5015381;28;20066;-68
2021/08/20 11:17:47;;;;;;;5.45;3.13;;;25.80;74.10;;;;;;5014935;28;20029;-69
2021/08/20 11:20:31;;;;;;;4.32;3.28;;;26.30;70.90;;;;;;5015202;28;20114;-68
2021/08/20 11:23:12;;;;;;;5.32;3.42;;;26.50;69.40;;;;;;5014654;28;20061;-70
2021/08/20 11:25:49;;;;;;;7.43;3.35;;;26.60;68.10;;;;;;5020223;28;20464;-66
2021/08/20 11:28:20;;;;;;;6.68;3.50;;;26.40;68.30;;;;;;5024145;28;20038;-68
2021/08/20 11:31:08;;;;;;;4.85;2.92;;;26.10;68.30;;;;;;5025467;28;20136;-68
2021/08/20 11:33:35;;;;;;;3.88;3.25;;;25.80;69.20;;;;;;5025606;28;20018;-68
2021/08/20 11:36:06;;;;;;;3.25;2.95;;;25.80;68.90;;;;;;5029173;28;20147;-68
2021/08/20 11:38:33;;;;;;;3.72;3.35;;;25.80;68.10;;;;;;5035034;28;20485;-67
2021/08/20 11:41:05;;;;;;;3.75;2.92;;;25.80;67.80;;;;;;5034191;28;20060;-70
2021/08/20 11:43:32;;;;;;;3.97;3.33;;;25.60;68.10;;;;;;5024657;28;20471;-76
2021/08/20 11:46:05;;;;;;;5.93;3.40;;;25.60;68.40;;;;;;5024666;28;20033;-77
2021/08/20 11:48:39;;;;;;;3.63;2.72;;;25.90;66.90;;;;;;5026460;28;20028;-82
2021/08/20 11:51:05;;;;;;;3.58;2.47;;;26.10;65.80;;;;;;5023042;28;20057;-76
2021/08/20 11:53:30;;;;;;;3.45;3.08;;;26.70;64.90;;;;;;5025279;28;20057;-72
2021/08/20 11:56:09;;;;;;;4.40;3.00;;;;;;;;;;5024118;28;20013;-75
2021/08/20 11:58:36;;;;;;;5.85;3.10;;;;;;;;;;5024122;28;20017;-75
2021/08/20 12:01:02;;;;;;;3.90;3.28;;;;;;;;;;5023046;28;20013;-75
2021/08/20 12:03:28;;;;;;;3.88;3.50;;;;;;;;;;5024895;28;20026;-78
2021/08/20 12:06:07;;;;;;;8.45;3.30;;;;;;;;;;5024145;28;20013;-75
2021/08/20 12:08:33;;;;;;;3.33;3.03;;;;;;;;;;5023762;28;20482;-83
2021/08/20 12:10:59;;;;;;;3.40;3.10;;;;;;;;;;5022890;28;20010;-75
2021/08/20 12:13:25;;;;;;;3.28;2.78;;;;;;;;;;5024967;28;20055;-71
2021/08/20 12:15:51;;;;;;;3.35;3.03;;;;;;;;;;5022814;28;20018;-76
2021/08/20 12:18:22;;;;;;;4.95;2.90;;;;;;;;;;5024139;28;20131;-76
2021/08/20 12:20:49;;;;;;;4.85;2.90;;;;;;;;;;5024476;28;20071;-85
2021/08/20 12:23:15;;;;;;;3.92;2.40;;;;;;;;;;5024034;28;20482;-80
2021/08/20 12:25:41;;;;;;;3.78;3.28;;;;;;;;;;5023281;28;20013;-78
2021/08/20 12:28:12;;;;;;;2.88;2.67;;;;;;;;;;5024088;28;20021;-76
2021/08/20 12:30:38;;;;;;;3.50;2.55;;;27.70;60.90;;;;;;5024296;28;20021;-74
2021/08/20 12:33:04;;;;;;;5.75;3.15;;;27.70;61.30;;;;;;5023295;28;20485;-72
2021/08/20 12:35:30;;;;;;;3.13;2.83;;;27.50;60.20;;;;;;5023131;28;20089;-73
2021/08/20 12:38:16;;;;;;;3.47;2.92;;;27.20;61.00;;;;;;5023106;28;20101;-69
2021/08/20 12:40:42;;;;;;;3.72;3.10;;;26.70;61.80;;;;;;5024574;28;20053;-72
2021/08/20 12:43:36;;;;;;;3.03;2.83;;;26.50;62.00;;;;;;5022090;28;20032;-75
2021/08/20 12:46:14;;;;;;;2.72;2.40;;;26.50;62.30;;;;;;5024036;28;20391;-76
2021/08/20 12:48:53;;;;;;;3.13;2.63;;;26.40;62.00;;;;;;5025489;28;20072;-69
2021/08/20 12:51:20;;;;;;;2.90;2.70;;;26.30;62.60;;;;;;5024295;28;20451;-74
2021/08/20 12:54:12;;;;;;;3.88;2.72;;;26.10;62.80;;;;;;5021908;28;20364;-76
2021/08/20 12:56:39;;;;;;;3.40;2.63;;;26.10;63.40;;;;;;5025229;28;20022;-76
2021/08/20 12:59:08;;;;;;;3.20;2.90;;;26.60;63.10;;;;;;5021633;28;20053;-73